Time;durP1;ratioP1;P1;durP2;ratioP2;P2;SDS_P1;SDS_P2;PMS_P1;PMS_P2;Temp;Humidity;BMP_temperature;BMP_pressure;BME280_temperature;BME280_humidity;BME280_pressure;Samples;Min_cycle;Max_cycle;Signal;HPM_P1;HPM_P2
2023/11/12 00:02:14;;;;;;;62.63;34.37;;;;;;;7.55;86.70;99005.16;5081873;28;20229;-71
2023/11/12 00:04:42;;;;;;;61.67;35.30;;;;;;;7.55;85.79;99008.59;5086662;28;20556;-71
2023/11/12 00:07:10;;;;;;;60.43;34.80;;;;;;;7.54;86.14;99004.31;5090322;28;20209;-70
2023/11/12 00:09:41;;;;;;;64.30;36.77;;;;;;;7.53;86.49;99002.63;5088792;28;20663;-70
2023/11/12 00:12:09;;;;;;;57.33;33.70;;;;;;;7.51;87.19;99006.91;5090103;28;20204;-72
2023/11/12 00:14:40;;;;;;;62.90;34.60;;;;;;;7.52;86.71;99000.09;5092427;28;20219;-68
2023/11/12 00:17:09;;;;;;;63.40;34.47;;;;;;;7.53;87.05;99004.34;5088090;28;20215;-69
2023/11/12 00:19:37;;;;;;;61.57;35.50;;;;;;;7.56;86.80;99006.88;5082067;28;20771;-74
2023/11/12 00:22:05;;;;;;;61.30;33.93;;;;;;;7.56;86.44;99001.75;5089881;28;20243;-70
2023/11/12 00:24:33;;;;;;;66.97;34.07;;;;;;;7.54;86.59;99004.31;5091315;28;20196;-71
2023/11/12 00:27:03;;;;;;;53.13;33.00;;;;;;;7.56;86.74;99002.59;5084412;28;20188;-70
2023/11/12 00:29:31;;;;;;;61.47;35.33;;;;;;;7.55;86.43;99006.03;5085545;28;20621;-69
2023/11/12 00:32:00;;;;;;;57.17;34.43;;;;;;;7.56;86.35;99006.88;5086516;28;20647;-69
2023/11/12 00:34:28;;;;;;;61.20;34.10;;;;;;;7.54;86.63;99004.31;5089838;28;20663;-69
2023/11/12 00:36:56;;;;;;;56.33;32.07;;;;;;;7.51;86.13;98999.22;5090692;28;20714;-69
2023/11/12 00:39:26;;;;;;;62.27;34.10;;;;;;;7.50;87.02;99007.78;5087691;28;20204;-68
2023/11/12 00:41:54;;;;;;;57.07;33.83;;;;;;;7.49;86.98;99000.97;5090303;28;20204;-69
2023/11/12 00:44:24;;;;;;;56.53;32.57;;;;;;;7.50;86.98;99005.22;5093732;28;20240;-70
2023/11/12 00:46:52;;;;;;;60.70;33.57;;;;;;;7.51;86.71;99004.34;5086189;28;20212;-70
2023/11/12 00:49:20;;;;;;;58.93;33.03;;;;;;;7.46;87.08;99006.16;5089629;28;20236;-68
2023/11/12 00:51:47;;;;;;;55.37;31.97;;;;;;;7.44;86.55;99010.47;5088752;28;20196;-69
2023/11/12 00:54:15;;;;;;;60.80;33.30;;;;;;;7.39;86.99;99002.00;5094116;28;20667;-74
2023/11/12 00:56:44;;;;;;;61.80;33.17;;;;;;;7.35;86.78;99008.88;5092930;28;20243;-68
2023/11/12 00:59:12;;;;;;;63.67;34.03;;;;;;;7.34;87.36;99009.75;5090464;28;20208;-68
2023/11/12 01:01:42;;;;;;;59.83;32.70;;;;;;;7.35;87.20;99008.03;5088771;28;20207;-68
2023/11/12 01:04:11;;;;;;;61.93;33.27;;;;;;;7.35;87.87;99011.44;5089719;28;20232;-70
2023/11/12 01:06:39;;;;;;;59.63;32.90;;;;;;;7.33;87.77;99004.63;5092504;28;20668;-69
2023/11/12 01:09:08;;;;;;;59.53;33.20;;;;;;;7.33;87.53;99009.75;5094297;28;20207;-67
2023/11/12 01:11:38;;;;;;;60.50;32.37;;;;;;;7.33;87.74;99004.63;5107335;28;20205;-69
2023/11/12 01:14:06;;;;;;;60.03;32.17;;;;;;;7.36;88.30;99013.13;5092686;28;20197;-69
2023/11/12 01:16:34;;;;;;;57.13;32.37;;;;;;;7.31;86.51;99006.38;5086763;28;20239;-67
2023/11/12 01:19:06;;;;;;;60.03;32.53;;;;;;;7.28;88.15;99012.41;5091963;28;20293;-70
2023/11/12 01:21:34;;;;;;;61.10;32.27;;;;;;;7.28;88.38;99009.84;5088139;28;20579;-68
2023/11/12 01:24:02;;;;;;;58.00;31.50;;;;;;;7.28;88.36;99012.41;5094448;28;20269;-68
2023/11/12 01:26:30;;;;;;;61.10;32.20;;;;;;;7.31;88.20;99014.06;5090638;28;20219;-69
2023/11/12 01:28:58;;;;;;;65.53;33.00;;;;;;;7.32;88.00;99014.03;5094166;28;20216;-69
2023/11/12 01:31:26;;;;;;;63.63;31.80;;;;;;;7.35;87.97;99005.47;5096867;28;20197;-68
2023/11/12 01:33:54;;;;;;;64.63;33.73;;;;;;;7.35;87.40;99008.88;5090654;28;20212;-69
2023/11/12 01:36:24;;;;;;;58.30;32.70;;;;;;;7.35;88.39;99013.16;5092048;28;20197;-68
2023/11/12 01:38:52;;;;;;;63.30;33.00;;;;;;;7.37;88.17;99016.56;5091607;28;20238;-69
2023/11/12 01:41:21;;;;;;;59.27;31.77;;;;;;;7.33;87.09;99010.63;5092997;28;20197;-69
2023/11/12 01:43:49;;;;;;;55.23;32.70;;;;;;;7.35;87.33;99016.56;5101096;28;20338;-67
2023/11/12 01:46:18;;;;;;;57.03;31.17;;;;;;;7.36;87.46;99009.72;5095130;28;20208;-71
2023/11/12 01:48:48;;;;;;;56.90;31.23;;;;;;;7.39;87.97;99025.06;5093578;28;20200;-71
2023/11/12 01:51:19;;;;;;;58.87;31.60;;;;;;;7.40;87.59;99022.50;5087697;28;20200;-69
2023/11/12 01:53:49;;;;;;;56.57;30.33;;;;;;;7.37;87.31;99022.53;5091433;28;20196;-72
2023/11/12 01:56:19;;;;;;;54.67;30.77;;;;;;;7.35;87.30;99023.41;5089964;28;20200;-70
2023/11/12 01:58:50;;;;;;;54.10;29.60;;;;;;;7.31;86.34;99021.75;5092381;28;20564;-71
2023/11/12 02:01:19;;;;;;;57.13;30.33;;;;;;;7.25;87.22;99021.00;5093188;28;20212;-71
2023/11/12 02:03:47;;;;;;;55.60;31.10;;;;;;;7.30;86.61;99026.06;5093109;28;20212;-70
2023/11/12 02:06:15;;;;;;;50.87;28.00;;;;;;;7.32;86.91;99028.56;5095817;28;20201;-70
2023/11/12 02:08:43;;;;;;;54.90;29.87;;;;;;;7.30;86.40;99025.22;5090632;28;20201;-70
2023/11/12 02:11:14;;;;;;;55.87;30.87;;;;;;;7.28;86.82;99025.22;5090137;28;20601;-71
2023/11/12 02:13:43;;;;;;;53.13;29.77;;;;;;;7.24;86.83;99028.69;5091097;28;20228;-70
2023/11/12 02:16:11;;;;;;;49.97;29.30;;;;;;;7.23;87.33;99027.00;5095480;28;20250;-72
2023/11/12 02:18:45;;;;;;;53.20;28.77;;;;;;;7.21;86.89;99018.47;5092922;28;20422;-70
2023/11/12 02:21:13;;;;;;;50.70;28.73;;;;;;;7.18;87.09;99021.97;5091639;28;20208;-69
2023/11/12 02:23:43;;;;;;;53.23;30.07;;;;;;;7.20;87.41;99020.19;5104167;28;20212;-70
2023/11/12 02:26:11;;;;;;;47.00;27.57;;;;;;;7.22;87.28;99022.75;5092196;28;20595;-72
2023/11/12 02:28:39;;;;;;;51.13;28.10;;;;;;;7.22;86.58;99023.59;5092438;28;20216;-70
2023/11/12 02:31:08;;;;;;;48.47;26.87;;;;;;;7.20;86.44;99025.31;5089224;28;20205;-70
2023/11/12 02:33:37;;;;;;;45.10;26.70;;;;;;;7.17;86.86;99025.38;5091860;28;20201;-70
2023/11/12 02:36:07;;;;;;;51.77;28.17;;;;;;;7.18;86.68;99027.06;5098772;28;20203;-70
2023/11/12 02:38:35;;;;;;;47.53;27.13;;;;;;;7.18;86.45;99026.22;5094308;28;20652;-71
2023/11/12 02:41:09;;;;;;;45.67;27.47;;;;;;;7.14;86.17;99020.31;5091572;28;20208;-72
2023/11/12 02:43:37;;;;;;;51.03;28.80;;;;;;;7.14;86.85;99033.13;5083607;28;20217;-71
2023/11/12 02:46:05;;;;;;;47.73;26.43;;;;;;;7.10;86.55;99023.75;5091330;28;20778;-70
2023/11/12 02:48:50;;;;;;;47.97;27.60;;;;;;;7.07;85.88;99018.69;5092227;28;20314;-70
2023/11/12 02:51:19;;;;;;;50.37;27.43;;;;;;;7.08;86.16;99027.22;5087656;28;20239;-71
2023/11/12 02:53:47;;;;;;;52.27;27.30;;;;;;;7.10;86.36;99031.44;5098141;28;20207;-71
2023/11/12 02:56:17;;;;;;;47.53;27.60;;;;;;;7.10;86.08;99031.44;5092488;28;20203;-72
2023/11/12 02:58:45;;;;;;;47.67;26.63;;;;;;;7.13;86.49;99031.41;5094365;28;20200;-73
2023/11/12 03:01:13;;;;;;;44.97;25.13;;;;;;;7.16;86.13;99038.19;5091892;28;20216;-70
2023/11/12 03:03:41;;;;;;;44.97;25.57;;;;;;;7.13;85.55;99041.66;5092840;28;20235;-72
2023/11/12 03:06:11;;;;;;;49.23;26.07;;;;;;;7.13;85.57;99049.34;5099323;28;20211;-73
2023/11/12 03:08:41;;;;;;;48.27;26.57;;;;;;;7.10;85.87;99036.56;5088423;28;20200;-70
2023/11/12 03:11:10;;;;;;;42.40;24.67;;;;;;;7.07;85.00;99033.19;5090323;28;20213;-70
2023/11/12 03:13:39;;;;;;;43.60;24.83;;;;;;;7.07;84.70;99039.19;5095496;28;20559;-70
2023/11/12 03:16:07;;;;;;;44.60;24.53;;;;;;;7.02;85.52;99035.81;5090589;28;20208;-69
2023/11/12 03:18:35;;;;;;;44.17;25.73;;;;;;;6.97;85.23;99028.22;5087752;28;20679;-70
2023/11/12 03:21:04;;;;;;;39.43;23.23;;;;;;;6.89;85.39;99029.19;5089204;28;20207;-71
2023/11/12 03:23:33;;;;;;;46.30;24.87;;;;;;;6.89;85.46;99039.44;5089832;28;20335;-72
2023/11/12 03:26:01;;;;;;;41.03;23.83;;;;;;;6.84;85.66;99031.78;5086753;28;20685;-71
2023/11/12 03:28:29;;;;;;;43.43;23.23;;;;;;;6.85;85.16;99033.50;5091119;28;20197;-70
2023/11/12 03:30:58;;;;;;;37.33;22.47;;;;;;;6.88;85.57;99038.56;5097839;28;20204;-70
2023/11/12 03:33:27;;;;;;;38.33;22.80;;;;;;;6.82;84.44;99028.41;5091053;28;20630;-69
2023/11/12 03:35:55;;;;;;;42.80;23.27;;;;;;;6.81;84.86;99041.22;5096939;28;20246;-70
2023/11/12 03:38:24;;;;;;;39.80;21.77;;;;;;;6.82;84.58;99042.94;5088472;28;20240;-70
2023/11/12 03:40:52;;;;;;;37.30;20.83;;;;;;;6.78;85.45;99042.97;5090910;28;20204;-71
2023/11/12 03:43:19;;;;;;;40.07;22.63;;;;;;;6.77;85.65;99038.72;5092010;28;20209;-71
2023/11/12 03:45:48;;;;;;;39.37;21.53;;;;;;;6.80;85.21;99034.41;5087803;28;20595;-70
2023/11/12 03:48:17;;;;;;;35.93;20.33;;;;;;;6.82;85.30;99042.94;5088500;28;20200;-70
2023/11/12 03:50:45;;;;;;;37.37;20.63;;;;;;;6.79;84.49;99041.25;5093704;28;20204;-70
2023/11/12 03:53:13;;;;;;;37.10;20.93;;;;;;;6.75;84.55;99031.91;5090019;28;20228;-72
2023/11/12 03:55:41;;;;;;;38.77;22.70;;;;;;;6.73;85.51;99029.34;5091610;28;20204;-70
2023/11/12 03:58:08;;;;;;;37.40;21.03;;;;;;;6.73;84.97;99034.47;5090543;28;20193;-71
2023/11/12 04:00:37;;;;;;;40.40;22.07;;;;;;;6.76;85.94;99041.28;5095551;28;20216;-70
2023/11/12 04:03:05;;;;;;;40.20;21.67;;;;;;;6.80;85.02;99039.53;5087536;28;20640;-72
2023/11/12 04:05:35;;;;;;;39.23;21.03;;;;;;;6.73;84.58;99026.81;5089457;28;20680;-71
2023/11/12 04:08:03;;;;;;;39.23;21.03;;;;;;;6.75;84.72;99043.00;5087691;28;20257;-73
2023/11/12 04:10:31;;;;;;;34.90;21.63;;;;;;;6.74;84.66;99055.84;5091302;28;20246;-73
2023/11/12 04:12:59;;;;;;;41.53;20.90;;;;;;;6.75;84.46;99048.13;5090248;28;20732;-75
2023/11/12 04:15:27;;;;;;;35.43;20.43;;;;;;;6.71;85.22;99045.63;5090442;28;20261;-75
2023/11/12 04:17:55;;;;;;;36.20;20.30;;;;;;;6.71;85.67;99054.16;5089871;28;20718;-73
2023/11/12 04:20:27;;;;;;;37.43;21.20;;;;;;;6.75;84.95;99047.28;5090603;28;20203;-74
2023/11/12 04:22:57;;;;;;;37.60;20.80;;;;;;;6.74;84.92;99054.13;5088289;28;20300;-73
2023/11/12 04:25:25;;;;;;;36.43;19.67;;;;;;;6.75;85.45;99055.81;5087124;28;20238;-74
2023/11/12 04:27:53;;;;;;;36.70;19.67;;;;;;;6.77;85.62;99045.53;5091060;28;20681;-76
2023/11/12 04:30:21;;;;;;;35.23;20.03;;;;;;;6.75;85.10;99048.13;5090695;28;20197;-75
2023/11/12 04:32:49;;;;;;;35.20;19.57;;;;;;;6.70;84.95;99052.47;5089340;28;20212;-74
2023/11/12 04:35:19;;;;;;;33.33;19.43;;;;;;;6.67;85.09;99062.72;5096128;28;20205;-76
2023/11/12 04:37:47;;;;;;;39.43;20.53;;;;;;;6.66;85.04;99066.13;5095939;28;20201;-74
2023/11/12 04:40:17;;;;;;;34.00;18.07;;;;;;;6.64;85.14;99067.88;5084458;28;20717;-75
2023/11/12 04:42:48;;;;;;;36.93;19.10;;;;;;;6.60;85.55;99068.78;5083839;28;20201;-75
2023/11/12 04:45:17;;;;;;;34.90;18.97;;;;;;;6.60;85.73;99066.22;5094520;28;20247;-76
2023/11/12 04:47:46;;;;;;;33.63;18.73;;;;;;;6.59;85.60;99061.97;5089448;28;20236;-73
2023/11/12 04:50:14;;;;;;;34.83;18.10;;;;;;;6.59;86.40;99066.22;5090356;28;20213;-74
2023/11/12 04:52:42;;;;;;;35.80;18.40;;;;;;;6.62;86.09;99067.03;5086959;28;20205;-76
2023/11/12 04:55:10;;;;;;;31.73;18.50;;;;;;;6.64;85.61;99070.44;5092205;28;20982;-76
2023/11/12 04:57:40;;;;;;;32.80;18.00;;;;;;;6.66;85.61;99067.84;5086968;28;20231;-75
2023/11/12 05:00:09;;;;;;;30.87;17.20;;;;;;;6.63;85.68;99068.75;5089471;28;20204;-75
2023/11/12 05:02:40;;;;;;;35.57;17.90;;;;;;;6.63;85.87;99068.75;5093946;28;20291;-75
2023/11/12 05:05:10;;;;;;;32.70;17.30;;;;;;;6.64;86.13;99070.44;5089206;28;20216;-78
2023/11/12 05:07:38;;;;;;;31.27;17.30;;;;;;;6.67;86.61;99075.53;5100008;28;20565;-71
2023/11/12 05:10:08;;;;;;;30.47;17.20;;;;;;;6.68;85.76;99074.66;5096183;28;20619;-73
2023/11/12 05:12:36;;;;;;;37.00;18.60;;;;;;;6.68;85.45;99081.50;5087290;28;20258;-74
2023/11/12 05:15:07;;;;;;;29.20;16.17;;;;;;;6.68;86.05;99084.91;5086885;28;21496;-74
2023/11/12 05:17:36;;;;;;;30.83;17.57;;;;;;;6.67;85.85;99075.53;5088661;28;20575;-75
2023/11/12 05:20:05;;;;;;;30.83;17.57;;;;;;;6.71;85.96;99078.91;5089005;28;20656;-75
2023/11/12 05:22:34;;;;;;;28.90;16.33;;;;;;;6.73;85.21;99084.84;5091632;28;20208;-71
2023/11/12 05:25:01;;;;;;;32.67;17.37;;;;;;;6.74;85.60;99089.94;5090282;28;20242;-71
2023/11/12 05:27:30;;;;;;;29.57;16.27;;;;;;;6.79;85.28;99095.00;5090476;28;20219;-68
2023/11/12 05:29:59;;;;;;;31.67;18.07;;;;;;;6.77;85.76;99089.94;5089162;28;20209;-69
2023/11/12 05:32:28;;;;;;;29.10;16.43;;;;;;;6.81;85.41;99087.31;5101933;28;20686;-68
2023/11/12 05:34:56;;;;;;;30.57;16.03;;;;;;;6.83;85.29;99095.81;5089445;28;20231;-69
2023/11/12 05:37:24;;;;;;;30.30;16.63;;;;;;;6.86;84.54;99095.78;5090129;28;20219;-71
2023/11/12 05:39:52;;;;;;;30.03;16.63;;;;;;;6.89;84.82;99100.88;5089519;28;20664;-70
2023/11/12 05:42:20;;;;;;;32.20;16.77;;;;;;;6.89;83.86;99106.00;5094405;28;20208;-68
2023/11/12 05:44:48;;;;;;;32.57;17.90;;;;;;;6.86;84.52;99101.75;5087732;28;20197;-70
2023/11/12 05:47:16;;;;;;;28.83;16.83;;;;;;;6.88;84.45;99104.28;5093797;28;20209;-68
2023/11/12 05:49:45;;;;;;;28.83;16.57;;;;;;;6.89;84.43;99106.00;5090893;28;20277;-68
2023/11/12 05:52:13;;;;;;;31.97;16.97;;;;;;;6.90;84.58;99117.94;5092233;28;20212;-68
2023/11/12 05:54:41;;;;;;;27.90;16.20;;;;;;;6.93;83.87;99117.91;5092731;28;20214;-69
2023/11/12 05:57:09;;;;;;;27.80;16.93;;;;;;;6.94;84.24;99124.72;5088237;28;20206;-68
2023/11/12 05:59:37;;;;;;;30.30;16.80;;;;;;;6.93;84.00;99117.91;5088730;28;20574;-69
2023/11/12 06:02:05;;;;;;;29.23;16.40;;;;;;;6.88;83.59;99115.38;5089926;28;20201;-68
2023/11/12 06:04:33;;;;;;;31.57;17.70;;;;;;;6.87;83.91;99123.09;5092138;28;20927;-68
2023/11/12 06:07:04;;;;;;;32.40;17.73;;;;;;;6.84;83.77;99118.84;5099913;28;20303;-69
2023/11/12 06:09:32;;;;;;;29.47;17.47;;;;;;;6.85;84.14;99129.94;5093845;28;20316;-69
2023/11/12 06:12:04;;;;;;;31.90;18.90;;;;;;;6.86;84.45;99131.66;5095501;28;20205;-69
2023/11/12 06:14:33;;;;;;;29.57;17.00;;;;;;;6.81;84.00;99129.09;5092037;28;20971;-70
2023/11/12 06:17:01;;;;;;;31.70;17.53;;;;;;;6.82;84.07;99132.53;5102082;28;20651;-67
2023/11/12 06:19:29;;;;;;;32.07;17.63;;;;;;;6.80;84.35;99132.53;5090210;28;20315;-68
2023/11/12 06:22:00;;;;;;;29.83;17.07;;;;;;;6.81;83.92;99129.09;5100579;28;20204;-69
2023/11/12 06:24:29;;;;;;;33.00;18.13;;;;;;;6.81;83.91;99138.50;5088740;28;20197;-68
2023/11/12 06:26:57;;;;;;;30.63;17.93;;;;;;;6.81;84.19;99139.34;5091849;28;20691;-70
2023/11/12 06:29:25;;;;;;;32.23;17.90;;;;;;;6.80;84.17;99129.13;5092343;28;20204;-69
2023/11/12 06:31:53;;;;;;;30.37;16.10;;;;;;;6.82;84.35;99130.81;5094127;28;20196;-70
2023/11/12 06:34:22;;;;;;;31.67;17.63;;;;;;;6.84;84.05;99128.25;5094694;28;20216;-69
2023/11/12 06:36:50;;;;;;;31.10;17.10;;;;;;;6.86;84.85;99135.03;5090194;28;20685;-75
2023/11/12 06:39:20;;;;;;;27.90;16.17;;;;;;;6.93;84.30;99135.84;5084090;28;20235;-75
2023/11/12 06:41:49;;;;;;;30.10;16.17;;;;;;;6.94;84.17;99128.13;5084586;28;20197;-73
2023/11/12 06:44:17;;;;;;;31.60;17.20;;;;;;;7.01;84.13;99141.72;5090606;28;20227;-74
2023/11/12 06:46:46;;;;;;;27.30;16.20;;;;;;;7.02;83.54;99133.16;5093464;28;20220;-74
2023/11/12 06:49:14;;;;;;;27.00;15.60;;;;;;;7.02;82.48;99134.00;5092482;28;20204;-75
2023/11/12 06:51:42;;;;;;;26.60;15.70;;;;;;;7.04;83.25;99128.88;5091939;28;20260;-75
2023/11/12 06:54:10;;;;;;;29.03;16.37;;;;;;;7.05;83.20;99134.84;5089218;28;20556;-73
2023/11/12 06:56:38;;;;;;;28.77;15.57;;;;;;;7.06;82.84;99129.69;5089103;28;20193;-74
2023/11/12 06:59:08;;;;;;;24.37;15.23;;;;;;;7.10;82.22;99135.63;5096893;28;20672;-74
2023/11/12 07:01:37;;;;;;;26.67;15.53;;;;;;;7.17;82.45;99138.06;5086954;28;20208;-74
2023/11/12 07:04:06;;;;;;;24.07;15.47;;;;;;;7.25;82.22;99131.16;5092372;28;20562;-79
2023/11/12 07:06:34;;;;;;;25.20;15.40;;;;;;;7.33;81.13;99136.19;5092168;28;20208;-76
2023/11/12 07:09:03;;;;;;;28.20;16.17;;;;;;;7.34;80.43;99137.03;5096166;28;20679;-75
2023/11/12 07:11:32;;;;;;;24.80;15.27;;;;;;;7.37;80.89;99135.28;5089216;28;20204;-77
2023/11/12 07:14:00;;;;;;;28.10;15.93;;;;;;;7.43;80.65;99135.19;5087237;28;20232;-75
2023/11/12 07:16:31;;;;;;;23.10;14.10;;;;;;;7.42;79.29;99137.78;5095812;28;20200;-75
2023/11/12 07:18:59;;;;;;;29.63;15.63;;;;;;;7.44;79.82;99144.59;5090982;28;20259;-73
2023/11/12 07:21:28;;;;;;;26.60;14.93;;;;;;;7.41;79.49;99141.22;5089884;28;20535;-73
2023/11/12 07:23:57;;;;;;;24.77;15.97;;;;;;;7.38;79.62;99146.38;5086852;28;20223;-74
2023/11/12 07:26:26;;;;;;;24.83;15.80;;;;;;;7.39;80.07;99153.19;5089021;28;20222;-72
2023/11/12 07:28:55;;;;;;;22.30;14.50;;;;;;;7.38;79.62;99148.94;5093684;28;20204;-73
2023/11/12 07:31:23;;;;;;;26.50;15.50;;;;;;;7.31;80.20;99158.41;5102945;28;20204;-73
2023/11/12 07:33:53;;;;;;;27.13;15.53;;;;;;;7.31;80.02;99165.25;5092786;28;20212;-75
2023/11/12 07:36:21;;;;;;;21.83;14.50;;;;;;;7.32;80.06;99161.81;5086972;28;20207;-73
2023/11/12 07:38:50;;;;;;;24.07;15.10;;;;;;;7.33;79.96;99169.50;5093695;28;20291;-73
2023/11/12 07:41:19;;;;;;;23.50;14.23;;;;;;;7.34;78.72;99171.19;5096228;28;20192;-70
2023/11/12 07:43:47;;;;;;;24.07;14.37;;;;;;;7.26;79.14;99173.84;5089886;28;20204;-69
2023/11/12 07:46:15;;;;;;;20.03;13.73;;;;;;;7.18;79.73;99169.66;5094432;28;20216;-71
2023/11/12 07:48:43;;;;;;;20.77;13.23;;;;;;;7.17;78.87;99179.06;5089571;28;20571;-71
2023/11/12 07:51:13;;;;;;;21.83;14.03;;;;;;;7.09;79.30;99193.69;5090980;28;20199;-72
2023/11/12 07:53:41;;;;;;;23.67;14.33;;;;;;;7.01;79.31;99191.22;5088943;28;20220;-71
2023/11/12 07:56:10;;;;;;;22.97;13.20;;;;;;;7.00;79.71;99188.69;5090569;28;20285;-71
2023/11/12 07:58:39;;;;;;;22.30;13.43;;;;;;;6.97;80.15;99202.34;5091431;28;22346;-70
2023/11/12 08:01:07;;;;;;;20.97;13.13;;;;;;;6.94;79.94;99196.41;5092846;28;20547;-72
2023/11/12 08:03:35;;;;;;;17.00;11.13;;;;;;;6.93;80.36;99198.13;5087358;28;20565;-70
2023/11/12 08:06:03;;;;;;;15.60;10.60;;;;;;;6.92;79.42;99205.81;5091599;28;20634;-70
2023/11/12 08:08:33;;;;;;;17.93;12.23;;;;;;;6.94;79.05;99207.50;5092930;28;20224;-69
2023/11/12 08:11:01;;;;;;;16.47;10.93;;;;;;;6.95;79.29;99208.34;5092179;28;20240;-71
2023/11/12 08:13:29;;;;;;;16.63;10.40;;;;;;;6.89;78.79;99209.28;5086515;28;20213;-71
2023/11/12 08:15:57;;;;;;;19.00;10.80;;;;;;;6.88;77.87;99216.97;5090760;28;20204;-71
2023/11/12 08:18:25;;;;;;;14.13;10.50;;;;;;;6.86;78.15;99211.88;5091269;28;20656;-70
2023/11/12 08:20:54;;;;;;;15.33;9.63;;;;;;;6.84;77.09;99215.28;5088598;28;20208;-72
2023/11/12 08:23:23;;;;;;;15.17;9.53;;;;;;;6.85;76.28;99211.84;5091375;28;20203;-70
2023/11/12 08:25:53;;;;;;;13.00;9.13;;;;;;;6.88;76.62;99217.81;5085081;28;21074;-71
2023/11/12 08:28:23;;;;;;;12.20;9.50;;;;;;;6.92;75.91;99211.81;5089331;28;20297;-71
2023/11/12 08:30:51;;;;;;;14.27;9.97;;;;;;;6.92;76.11;99214.38;5087674;28;20220;-72
2023/11/12 08:33:20;;;;;;;11.43;8.60;;;;;;;6.98;75.56;99221.13;5091520;28;20204;-71
2023/11/12 08:35:50;;;;;;;14.17;10.07;;;;;;;7.03;75.82;99216.78;5091139;28;20717;-70
2023/11/12 08:38:19;;;;;;;11.43;9.13;;;;;;;7.06;75.60;99216.75;5072902;28;20211;-70
2023/11/12 08:40:47;;;;;;;13.43;9.63;;;;;;;7.07;75.31;99222.72;5101019;28;20208;-68
2023/11/12 08:43:16;;;;;;;13.03;9.57;;;;;;;7.03;74.37;99216.78;5076992;28;20208;-68
2023/11/12 08:45:44;;;;;;;12.73;9.20;;;;;;;6.99;74.94;99226.22;5086308;28;20224;-69
2023/11/12 08:48:13;;;;;;;13.63;8.40;;;;;;;6.95;74.36;99234.81;5087614;28;20221;-68
2023/11/12 08:50:41;;;;;;;13.90;9.53;;;;;;;6.89;75.22;99231.47;5089152;28;20201;-67
2023/11/12 08:53:09;;;;;;;16.93;10.03;;;;;;;6.84;74.83;99228.09;5090060;28;20671;-72
2023/11/12 08:55:41;;;;;;;13.67;10.10;;;;;;;6.81;76.09;99228.13;5090019;28;20208;-72
2023/11/12 08:58:09;;;;;;;14.47;9.70;;;;;;;6.84;76.38;99230.66;5096400;28;20212;-73
2023/11/12 09:00:38;;;;;;;15.33;10.53;;;;;;;6.78;75.28;99222.19;5091174;28;20207;-73
2023/11/12 09:03:07;;;;;;;14.63;9.83;;;;;;;6.80;75.49;99227.28;5088567;28;20584;-71
2023/11/12 09:05:36;;;;;;;16.63;9.73;;;;;;;6.77;75.47;99230.75;5088640;28;20205;-73
2023/11/12 09:08:06;;;;;;;15.23;10.57;;;;;;;6.81;75.63;99234.09;5089589;28;20266;-71
2023/11/12 09:10:34;;;;;;;16.57;10.33;;;;;;;6.80;74.88;99236.66;5090309;28;20286;-72
2023/11/12 09:13:03;;;;;;;16.97;10.67;;;;;;;6.70;74.93;99244.44;5095543;28;20205;-73
2023/11/12 09:15:32;;;;;;;17.30;11.50;;;;;;;6.70;75.77;99243.56;5096901;28;20201;-75
2023/11/12 09:18:03;;;;;;;17.07;10.90;;;;;;;6.63;75.18;99242.81;5092809;28;20273;-74
2023/11/12 09:20:31;;;;;;;17.73;11.70;;;;;;;6.62;75.19;99248.75;5086495;28;20682;-71
2023/11/12 09:22:59;;;;;;;17.80;11.43;;;;;;;6.59;75.26;99250.50;5089355;28;20209;-72
2023/11/12 09:25:27;;;;;;;16.97;11.23;;;;;;;6.61;75.70;99246.22;5090174;28;20307;-72
2023/11/12 09:27:55;;;;;;;21.93;10.93;;;;;;;6.66;75.88;99247.88;5074420;28;20786;-73
2023/11/12 09:30:24;;;;;;;18.73;11.33;;;;;;;6.61;74.28;99246.22;5091963;28;20583;-75
2023/11/12 09:32:56;;;;;;;17.57;11.63;;;;;;;6.52;75.66;99242.88;5092114;28;20208;-76
2023/11/12 09:35:26;;;;;;;19.73;12.93;;;;;;;6.59;75.66;99247.94;5093716;28;20630;-73
2023/11/12 09:37:54;;;;;;;18.50;12.50;;;;;;;6.57;75.74;99250.53;5087430;28;20204;-74
2023/11/12 09:40:22;;;;;;;17.40;12.57;;;;;;;6.53;75.94;99241.19;5089851;28;20209;-73
2023/11/12 09:42:53;;;;;;;16.97;11.13;;;;;;;6.58;75.95;99257.34;5089692;28;20676;-69
2023/11/12 09:45:22;;;;;;;17.53;11.93;;;;;;;6.60;75.60;99250.50;5092704;28;20714;-68
2023/11/12 09:48:03;;;;;;;16.70;11.13;;;;;;;6.55;75.04;99249.66;5084871;28;20576;-66
2023/11/12 09:50:35;;;;;;;16.63;11.67;;;;;;;6.65;75.60;99263.25;5090256;28;20723;-68
2023/11/12 09:53:04;;;;;;;19.40;12.30;;;;;;;6.72;75.89;99263.19;5093718;28;20685;-63
2023/11/12 09:55:35;;;;;;;17.47;11.93;;;;;;;6.81;74.53;99257.13;5090855;28;20229;-66
2023/11/12 09:58:03;;;;;;;16.90;11.83;;;;;;;6.86;74.74;99269.91;5091035;28;20188;-66
2023/11/12 10:00:34;;;;;;;19.03;11.60;;;;;;;6.96;74.22;99263.84;5087012;28;20250;-64
2023/11/12 10:03:07;;;;;;;18.63;11.63;;;;;;;6.98;74.15;99274.91;5083174;28;20208;-72
2023/11/12 10:05:38;;;;;;;19.27;13.63;;;;;;;6.76;74.50;99277.66;5085080;28;20204;-72
2023/11/12 10:08:06;;;;;;;20.20;13.30;;;;;;;6.77;74.61;99283.63;5089822;28;20223;-72
2023/11/12 10:10:35;;;;;;;19.70;12.90;;;;;;;6.60;74.19;99285.50;5093841;28;20242;-70
2023/11/12 10:13:04;;;;;;;19.70;13.73;;;;;;;6.57;74.22;99281.22;5092884;28;20223;-68
2023/11/12 10:15:34;;;;;;;20.43;14.27;;;;;;;6.53;74.82;99287.25;5091106;28;20224;-69
2023/11/12 10:18:03;;;;;;;19.20;13.23;;;;;;;6.53;75.80;99277.84;5092703;28;20240;-71
2023/11/12 10:20:37;;;;;;;19.97;12.77;;;;;;;6.63;74.70;99288.00;5088567;28;20199;-72
2023/11/12 10:23:18;;;;;;;18.60;12.63;;;;;;;6.65;74.86;99279.47;5093292;28;20200;-72
2023/11/12 10:26:02;;;;;;;18.10;12.87;;;;;;;6.74;74.35;99292.19;5094006;28;20196;-67
2023/11/12 10:28:34;;;;;;;19.10;13.20;;;;;;;6.68;73.68;99287.13;5091107;28;20216;-68
2023/11/12 10:31:02;;;;;;;18.57;12.93;;;;;;;6.68;73.13;99299.91;5090394;28;20567;-68
2023/11/12 10:33:34;;;;;;;16.93;12.07;;;;;;;6.70;73.12;99297.34;5090653;28;20226;-67
2023/11/12 10:36:09;;;;;;;17.13;12.00;;;;;;;6.52;73.73;99283.00;5089726;28;20255;-67
2023/11/12 10:38:49;;;;;;;17.13;12.37;;;;;;;6.56;74.51;99277.00;5086531;28;20193;-67
2023/11/12 10:41:18;;;;;;;16.90;12.13;;;;;;;6.53;73.57;99285.53;5096149;28;20196;-68
2023/11/12 10:43:58;;;;;;;16.43;12.03;;;;;;;6.53;73.45;99297.47;5085067;28;20244;-73
2023/11/12 10:46:27;;;;;;;17.97;13.33;;;;;;;6.44;74.23;99285.59;5092794;28;20200;-70
2023/11/12 10:48:57;;;;;;;18.60;12.53;;;;;;;6.41;74.49;99287.34;5093078;28;20217;-73
2023/11/12 10:51:27;;;;;;;18.37;12.70;;;;;;;6.39;74.66;99284.78;5092947;28;20566;-72
2023/11/12 10:54:02;;;;;;;22.53;12.90;;;;;;;6.40;75.04;99283.06;5090978;28;20196;-71
2023/11/12 10:56:31;;;;;;;17.07;12.13;;;;;;;6.34;73.92;99295.91;5092906;28;20556;-66
2023/11/12 10:59:00;;;;;;;20.90;13.77;;;;;;;6.37;74.82;99295.88;5092569;28;20554;-67
2023/11/12 11:01:28;;;;;;;21.80;13.80;;;;;;;6.40;74.89;99299.25;5097699;28;20226;-67
2023/11/12 11:03:57;;;;;;;24.07;15.07;;;;;;;6.39;74.44;99289.03;5097628;28;20287;-67
2023/11/12 11:06:27;;;;;;;22.07;14.50;;;;;;;6.28;75.09;99302.75;5091470;28;20271;-66
2023/11/12 11:08:57;;;;;;;25.23;14.37;;;;;;;6.25;74.80;99315.56;5097367;28;20228;-66
2023/11/12 11:11:25;;;;;;;28.47;17.07;;;;;;;6.24;75.81;99303.63;5091315;28;20286;-69
2023/11/12 11:13:57;;;;;;;27.73;17.07;;;;;;;6.31;76.06;99308.72;5090169;28;20594;-75
2023/11/12 11:16:46;;;;;;;28.00;18.40;;;;;;;6.43;76.17;99300.97;5089496;28;20651;-76
2023/11/12 11:19:17;;;;;;;28.60;16.70;;;;;;;6.62;75.58;99299.94;5078575;28;20790;-75
2023/11/12 11:22:19;;;;;;;27.90;17.77;;;;;;;6.74;75.19;99309.28;5089849;28;20196;-75
2023/11/12 11:24:48;;;;;;;26.50;16.77;;;;;;;6.84;75.33;99302.34;5086569;28;20200;-75
2023/11/12 11:27:18;;;;;;;29.27;17.27;;;;;;;6.91;74.12;99309.97;5101246;28;20208;-76
2023/11/12 11:30:06;;;;;;;29.77;17.73;;;;;;;6.88;73.82;99302.31;5089333;28;20249;-75
2023/11/12 11:32:34;;;;;;;28.67;18.73;;;;;;;6.81;73.92;99300.66;5080113;28;20201;-75
2023/11/12 11:35:06;;;;;;;27.47;18.33;;;;;;;6.87;74.45;99312.56;5091383;28;20199;-75
2023/11/12 11:38:09;;;;;;;33.37;20.07;;;;;;;6.83;75.33;99311.75;5097384;28;20211;-75